Ingomar, Montana
Current Conditions -  °F | °C
As of 9:53 AM on Friday 28 Nov 2014 (Local Time) from KMLS Reporting Station
Scattered Clouds Scattered Clouds  
Wind Chill: 33°   Ceiling: Unl
Heat Index: 40°   Visibility: 10mi
Dew Point: 32°   Wind: 12mph
Humidity: 73%   Direction: 160°SSE
Pressure: 29.57"   Gusts: NA
Location:  46.57°N, 107.38°W
Report Text: KMLS 281653Z AUTO 16010KT 10SM SCT110 04/00 A2957 RMK AO2 SLP026 T00440000
Loading
Personal Weather Stations






























Interactive Weather Map New forecast layout! Learn more

10-Day Weather Forecast

Advertisements
Track Severe Weather on mobile